sensor_id;sensor_type;location;lat;lon;timestamp;P1;durP1;ratioP1;P2;durP2;ratioP2
40088;SDS011;25793;55.706;13.186;2022-08-21T00:00:23;18.52;;;16.98;;
40088;SDS011;25793;55.706;13.186;2022-08-21T00:03:03;23.10;;;21.60;;
40088;SDS011;25793;55.706;13.186;2022-08-21T00:05:43;21.95;;;20.35;;
40088;SDS011;25793;55.706;13.186;2022-08-21T00:08:12;16.10;;;14.80;;
40088;SDS011;25793;55.706;13.186;2022-08-21T00:10:40;15.95;;;14.48;;
40088;SDS011;25793;55.706;13.186;2022-08-21T00:13:08;14.82;;;13.55;;
40088;SDS011;25793;55.706;13.186;2022-08-21T00:15:37;17.08;;;15.77;;
40088;SDS011;25793;55.706;13.186;2022-08-21T00:18:05;14.47;;;13.37;;
40088;SDS011;25793;55.706;13.186;2022-08-21T00:20:34;14.20;;;13.10;;
40088;SDS011;25793;55.706;13.186;2022-08-21T00:23:01;15.38;;;14.07;;
40088;SDS011;25793;55.706;13.186;2022-08-21T00:25:28;14.93;;;13.55;;
40088;SDS011;25793;55.706;13.186;2022-08-21T00:27:55;13.25;;;12.10;;
40088;SDS011;25793;55.706;13.186;2022-08-21T00:30:23;13.77;;;12.55;;
40088;SDS011;25793;55.706;13.186;2022-08-21T00:32:52;13.68;;;12.48;;
40088;SDS011;25793;55.706;13.186;2022-08-21T00:35:31;13.18;;;12.02;;
40088;SDS011;25793;55.706;13.186;2022-08-21T00:38:01;12.93;;;11.73;;
40088;SDS011;25793;55.706;13.186;2022-08-21T00:40:30;12.82;;;11.82;;
40088;SDS011;25793;55.706;13.186;2022-08-21T00:43:04;12.05;;;10.93;;
40088;SDS011;25793;55.706;13.186;2022-08-21T00:45:34;12.23;;;11.20;;
40088;SDS011;25793;55.706;13.186;2022-08-21T00:48:01;11.07;;;9.98;;
40088;SDS011;25793;55.706;13.186;2022-08-21T00:50:29;11.07;;;10.07;;
40088;SDS011;25793;55.706;13.186;2022-08-21T00:52:58;11.50;;;9.27;;
40088;SDS011;25793;55.706;13.186;2022-08-21T00:55:27;13.03;;;11.93;;
40088;SDS011;25793;55.706;13.186;2022-08-21T00:57:58;10.52;;;8.60;;
40088;SDS011;25793;55.706;13.186;2022-08-21T01:00:28;10.60;;;9.60;;
40088;SDS011;25793;55.706;13.186;2022-08-21T01:02:58;9.45;;;7.65;;
40088;SDS011;25793;55.706;13.186;2022-08-21T01:05:32;9.13;;;8.30;;
40088;SDS011;25793;55.706;13.186;2022-08-21T01:07:59;8.77;;;7.53;;
40088;SDS011;25793;55.706;13.186;2022-08-21T01:10:26;8.48;;;6.65;;
40088;SDS011;25793;55.706;13.186;2022-08-21T01:12:53;8.03;;;6.07;;
40088;SDS011;25793;55.706;13.186;2022-08-21T01:15:23;6.32;;;4.97;;
40088;SDS011;25793;55.706;13.186;2022-08-21T01:17:53;9.05;;;5.30;;
40088;SDS011;25793;55.706;13.186;2022-08-21T01:20:20;10.07;;;5.00;;
40088;SDS011;25793;55.706;13.186;2022-08-21T01:22:46;7.28;;;4.60;;
40088;SDS011;25793;55.706;13.186;2022-08-21T01:25:14;9.00;;;5.25;;
40088;SDS011;25793;55.706;13.186;2022-08-21T01:27:42;7.72;;;4.97;;
40088;SDS011;25793;55.706;13.186;2022-08-21T01:30:15;7.95;;;5.20;;
40088;SDS011;25793;55.706;13.186;2022-08-21T01:32:45;7.32;;;5.90;;
40088;SDS011;25793;55.706;13.186;2022-08-21T01:35:14;9.45;;;8.60;;
40088;SDS011;25793;55.706;13.186;2022-08-21T01:37:43;12.73;;;11.57;;
40088;SDS011;25793;55.706;13.186;2022-08-21T01:40:11;14.23;;;12.93;;
40088;SDS011;25793;55.706;13.186;2022-08-21T01:42:43;12.70;;;11.40;;
40088;SDS011;25793;55.706;13.186;2022-08-21T01:45:11;13.02;;;11.90;;
40088;SDS011;25793;55.706;13.186;2022-08-21T01:47:40;12.83;;;11.63;;
40088;SDS011;25793;55.706;13.186;2022-08-21T01:50:08;11.43;;;10.32;;
40088;SDS011;25793;55.706;13.186;2022-08-21T01:52:37;10.00;;;9.00;;
40088;SDS011;25793;55.706;13.186;2022-08-21T01:55:04;9.10;;;7.93;;
40088;SDS011;25793;55.706;13.186;2022-08-21T01:57:33;11.02;;;9.95;;
40088;SDS011;25793;55.706;13.186;2022-08-21T02:00:00;10.20;;;9.20;;
40088;SDS011;25793;55.706;13.186;2022-08-21T02:02:37;10.43;;;9.38;;
40088;SDS011;25793;55.706;13.186;2022-08-21T02:05:05;9.27;;;8.38;;
40088;SDS011;25793;55.706;13.186;2022-08-21T02:07:36;10.32;;;9.32;;
40088;SDS011;25793;55.706;13.186;2022-08-21T02:10:05;13.13;;;10.77;;
40088;SDS011;25793;55.706;13.186;2022-08-21T02:12:33;12.98;;;11.85;;
40088;SDS011;25793;55.706;13.186;2022-08-21T02:15:00;13.03;;;11.73;;
40088;SDS011;25793;55.706;13.186;2022-08-21T02:17:26;12.60;;;11.45;;
40088;SDS011;25793;55.706;13.186;2022-08-21T02:19:53;12.52;;;11.43;;
40088;SDS011;25793;55.706;13.186;2022-08-21T02:22:20;12.27;;;11.27;;
40088;SDS011;25793;55.706;13.186;2022-08-21T02:24:47;12.18;;;11.07;;
40088;SDS011;25793;55.706;13.186;2022-08-21T02:27:21;11.73;;;10.73;;
40088;SDS011;25793;55.706;13.186;2022-08-21T02:29:53;11.97;;;10.70;;
40088;SDS011;25793;55.706;13.186;2022-08-21T02:32:23;12.77;;;11.47;;
40088;SDS011;25793;55.706;13.186;2022-08-21T02:34:50;12.70;;;11.43;;
40088;SDS011;25793;55.706;13.186;2022-08-21T02:37:18;13.13;;;11.73;;
40088;SDS011;25793;55.706;13.186;2022-08-21T02:39:45;10.13;;;9.13;;
40088;SDS011;25793;55.706;13.186;2022-08-21T02:42:12;9.57;;;8.67;;
40088;SDS011;25793;55.706;13.186;2022-08-21T02:44:38;13.20;;;12.10;;
40088;SDS011;25793;55.706;13.186;2022-08-21T02:47:05;16.77;;;12.73;;
40088;SDS011;25793;55.706;13.186;2022-08-21T02:49:32;14.55;;;13.25;;
40088;SDS011;25793;55.706;13.186;2022-08-21T02:51:58;14.18;;;12.88;;
40088;SDS011;25793;55.706;13.186;2022-08-21T02:54:27;16.08;;;14.75;;
40088;SDS011;25793;55.706;13.186;2022-08-21T02:56:54;15.13;;;13.87;;
40088;SDS011;25793;55.706;13.186;2022-08-21T02:59:21;14.35;;;12.88;;
40088;SDS011;25793;55.706;13.186;2022-08-21T03:01:47;16.42;;;14.88;;
40088;SDS011;25793;55.706;13.186;2022-08-21T03:04:14;15.15;;;13.82;;
40088;SDS011;25793;55.706;13.186;2022-08-21T03:06:41;14.32;;;13.15;;
40088;SDS011;25793;55.706;13.186;2022-08-21T03:09:08;12.73;;;11.52;;
40088;SDS011;25793;55.706;13.186;2022-08-21T03:11:34;14.75;;;13.52;;
40088;SDS011;25793;55.706;13.186;2022-08-21T03:14:01;16.13;;;14.82;;
40088;SDS011;25793;55.706;13.186;2022-08-21T03:16:28;16.05;;;14.63;;
40088;SDS011;25793;55.706;13.186;2022-08-21T03:19:00;20.43;;;18.97;;
40088;SDS011;25793;55.706;13.186;2022-08-21T03:21:27;24.40;;;22.47;;
40088;SDS011;25793;55.706;13.186;2022-08-21T03:23:54;22.48;;;20.80;;
40088;SDS011;25793;55.706;13.186;2022-08-21T03:26:21;20.80;;;19.20;;
40088;SDS011;25793;55.706;13.186;2022-08-21T03:28:48;22.15;;;20.55;;
40088;SDS011;25793;55.706;13.186;2022-08-21T03:31:17;20.38;;;18.98;;
40088;SDS011;25793;55.706;13.186;2022-08-21T03:33:43;20.27;;;18.77;;
40088;SDS011;25793;55.706;13.186;2022-08-21T03:36:10;18.10;;;16.80;;
40088;SDS011;25793;55.706;13.186;2022-08-21T03:38:37;19.42;;;18.00;;
40088;SDS011;25793;55.706;13.186;2022-08-21T03:41:04;19.65;;;18.05;;
40088;SDS011;25793;55.706;13.186;2022-08-21T03:43:33;17.17;;;15.73;;
40088;SDS011;25793;55.706;13.186;2022-08-21T03:46:01;15.88;;;14.70;;
40088;SDS011;25793;55.706;13.186;2022-08-21T03:48:29;14.68;;;13.48;;
40088;SDS011;25793;55.706;13.186;2022-08-21T03:50:56;13.73;;;12.73;;
40088;SDS011;25793;55.706;13.186;2022-08-21T03:53:23;15.13;;;13.98;;
40088;SDS011;25793;55.706;13.186;2022-08-21T03:55:51;14.87;;;13.77;;
40088;SDS011;25793;55.706;13.186;2022-08-21T03:58:20;15.52;;;14.43;;
40088;SDS011;25793;55.706;13.186;2022-08-21T04:00:50;14.48;;;13.27;;
40088;SDS011;25793;55.706;13.186;2022-08-21T04:03:18;17.05;;;15.52;;
40088;SDS011;25793;55.706;13.186;2022-08-21T04:05:46;16.50;;;15.27;;
40088;SDS011;25793;55.706;13.186;2022-08-21T04:08:13;15.43;;;14.13;;
40088;SDS011;25793;55.706;13.186;2022-08-21T04:10:41;14.77;;;13.70;;
40088;SDS011;25793;55.706;13.186;2022-08-21T04:13:10;15.97;;;14.67;;
40088;SDS011;25793;55.706;13.186;2022-08-21T04:15:38;13.97;;;12.77;;
40088;SDS011;25793;55.706;13.186;2022-08-21T04:18:04;14.93;;;13.73;;
40088;SDS011;25793;55.706;13.186;2022-08-21T04:20:31;14.73;;;13.60;;
40088;SDS011;25793;55.706;13.186;2022-08-21T04:22:59;14.18;;;12.98;;
40088;SDS011;25793;55.706;13.186;2022-08-21T04:25:26;14.93;;;13.75;;
40088;SDS011;25793;55.706;13.186;2022-08-21T04:27:53;14.35;;;13.05;;
40088;SDS011;25793;55.706;13.186;2022-08-21T04:30:20;14.25;;;12.98;;
40088;SDS011;25793;55.706;13.186;2022-08-21T04:32:54;15.32;;;13.93;;
40088;SDS011;25793;55.706;13.186;2022-08-21T04:35:25;12.57;;;11.57;;
40088;SDS011;25793;55.706;13.186;2022-08-21T04:37:53;13.50;;;12.20;;
40088;SDS011;25793;55.706;13.186;2022-08-21T04:40:20;13.02;;;12.07;;
40088;SDS011;25793;55.706;13.186;2022-08-21T04:42:49;12.33;;;11.10;;
40088;SDS011;25793;55.706;13.186;2022-08-21T04:45:26;13.37;;;12.07;;
40088;SDS011;25793;55.706;13.186;2022-08-21T04:48:04;11.00;;;9.90;;
40088;SDS011;25793;55.706;13.186;2022-08-21T04:53:24;12.35;;;11.25;;
40088;SDS011;25793;55.706;13.186;2022-08-21T04:56:00;10.60;;;9.63;;
40088;SDS011;25793;55.706;13.186;2022-08-21T04:58:31;12.20;;;10.95;;
40088;SDS011;25793;55.706;13.186;2022-08-21T05:00:59;11.63;;;8.70;;
40088;SDS011;25793;55.706;13.186;2022-08-21T05:03:28;11.70;;;8.95;;
40088;SDS011;25793;55.706;13.186;2022-08-21T05:05:57;9.60;;;8.65;;
40088;SDS011;25793;55.706;13.186;2022-08-21T05:08:24;9.47;;;8.57;;
40088;SDS011;25793;55.706;13.186;2022-08-21T05:10:53;10.67;;;9.20;;
40088;SDS011;25793;55.706;13.186;2022-08-21T05:13:25;9.00;;;8.10;;
40088;SDS011;25793;55.706;13.186;2022-08-21T05:15:52;7.75;;;6.90;;
40088;SDS011;25793;55.706;13.186;2022-08-21T05:18:22;8.43;;;6.85;;
40088;SDS011;25793;55.706;13.186;2022-08-21T05:20:50;8.15;;;6.80;;
40088;SDS011;25793;55.706;13.186;2022-08-21T05:23:17;8.30;;;6.95;;
40088;SDS011;25793;55.706;13.186;2022-08-21T05:25:43;8.57;;;6.63;;
40088;SDS011;25793;55.706;13.186;2022-08-21T05:28:11;6.82;;;5.40;;
40088;SDS011;25793;55.706;13.186;2022-08-21T05:30:38;6.60;;;5.75;;
40088;SDS011;25793;55.706;13.186;2022-08-21T05:33:05;6.50;;;5.32;;
40088;SDS011;25793;55.706;13.186;2022-08-21T05:35:33;7.22;;;5.00;;
40088;SDS011;25793;55.706;13.186;2022-08-21T05:38:00;7.28;;;4.72;;
40088;SDS011;25793;55.706;13.186;2022-08-21T05:40:28;8.70;;;5.50;;
40088;SDS011;25793;55.706;13.186;2022-08-21T05:42:55;6.80;;;5.22;;
40088;SDS011;25793;55.706;13.186;2022-08-21T05:45:23;13.40;;;12.18;;
40088;SDS011;25793;55.706;13.186;2022-08-21T05:50:49;23.02;;;21.25;;
40088;SDS011;25793;55.706;13.186;2022-08-21T05:53:18;25.33;;;23.52;;
40088;SDS011;25793;55.706;13.186;2022-08-21T05:55:46;17.47;;;16.17;;
40088;SDS011;25793;55.706;13.186;2022-08-21T05:58:15;13.27;;;12.20;;
40088;SDS011;25793;55.706;13.186;2022-08-21T06:00:44;11.10;;;9.63;;
40088;SDS011;25793;55.706;13.186;2022-08-21T06:03:14;7.60;;;5.68;;
40088;SDS011;25793;55.706;13.186;2022-08-21T06:05:43;6.88;;;5.40;;
40088;SDS011;25793;55.706;13.186;2022-08-21T06:08:11;5.53;;;4.20;;
40088;SDS011;25793;55.706;13.186;2022-08-21T06:10:39;7.43;;;3.20;;
40088;SDS011;25793;55.706;13.186;2022-08-21T06:13:08;5.97;;;3.00;;
40088;SDS011;25793;55.706;13.186;2022-08-21T06:15:35;4.80;;;2.42;;
40088;SDS011;25793;55.706;13.186;2022-08-21T06:18:02;6.22;;;2.40;;
40088;SDS011;25793;55.706;13.186;2022-08-21T06:20:29;5.30;;;2.25;;
40088;SDS011;25793;55.706;13.186;2022-08-21T06:22:56;5.25;;;2.40;;
40088;SDS011;25793;55.706;13.186;2022-08-21T06:25:23;5.70;;;2.22;;
40088;SDS011;25793;55.706;13.186;2022-08-21T06:27:50;4.95;;;2.17;;
40088;SDS011;25793;55.706;13.186;2022-08-21T06:30:17;6.90;;;2.35;;
40088;SDS011;25793;55.706;13.186;2022-08-21T06:32:45;4.47;;;2.30;;
40088;SDS011;25793;55.706;13.186;2022-08-21T06:35:11;5.90;;;2.40;;
40088;SDS011;25793;55.706;13.186;2022-08-21T06:37:38;5.72;;;2.17;;
40088;SDS011;25793;55.706;13.186;2022-08-21T06:40:05;5.38;;;1.98;;
40088;SDS011;25793;55.706;13.186;2022-08-21T06:42:38;5.95;;;3.03;;
40088;SDS011;25793;55.706;13.186;2022-08-21T06:45:08;4.47;;;2.33;;
40088;SDS011;25793;55.706;13.186;2022-08-21T06:47:35;5.50;;;2.90;;
40088;SDS011;25793;55.706;13.186;2022-08-21T06:50:02;6.87;;;2.67;;
40088;SDS011;25793;55.706;13.186;2022-08-21T06:52:30;5.07;;;2.60;;
40088;SDS011;25793;55.706;13.186;2022-08-21T06:54:58;5.82;;;3.65;;
40088;SDS011;25793;55.706;13.186;2022-08-21T06:57:27;6.28;;;3.35;;
40088;SDS011;25793;55.706;13.186;2022-08-21T06:59:54;5.93;;;3.40;;
40088;SDS011;25793;55.706;13.186;2022-08-21T07:02:20;12.48;;;4.53;;
40088;SDS011;25793;55.706;13.186;2022-08-21T07:04:50;7.18;;;3.50;;
40088;SDS011;25793;55.706;13.186;2022-08-21T07:07:17;6.10;;;3.30;;
40088;SDS011;25793;55.706;13.186;2022-08-21T07:09:44;9.25;;;3.88;;
40088;SDS011;25793;55.706;13.186;2022-08-21T07:12:10;7.18;;;3.50;;
40088;SDS011;25793;55.706;13.186;2022-08-21T07:14:41;10.25;;;7.93;;
40088;SDS011;25793;55.706;13.186;2022-08-21T07:17:08;8.55;;;4.85;;
40088;SDS011;25793;55.706;13.186;2022-08-21T07:19:35;8.38;;;6.25;;
40088;SDS011;25793;55.706;13.186;2022-08-21T07:22:02;7.00;;;3.70;;
40088;SDS011;25793;55.706;13.186;2022-08-21T07:24:29;6.35;;;3.75;;
40088;SDS011;25793;55.706;13.186;2022-08-21T07:26:57;8.43;;;5.53;;
40088;SDS011;25793;55.706;13.186;2022-08-21T07:29:24;5.05;;;2.72;;
40088;SDS011;25793;55.706;13.186;2022-08-21T07:31:51;9.20;;;3.67;;
40088;SDS011;25793;55.706;13.186;2022-08-21T07:34:18;7.47;;;3.20;;
40088;SDS011;25793;55.706;13.186;2022-08-21T07:36:44;7.13;;;2.75;;
40088;SDS011;25793;55.706;13.186;2022-08-21T07:39:14;8.43;;;3.10;;
40088;SDS011;25793;55.706;13.186;2022-08-21T07:41:41;7.22;;;2.85;;
40088;SDS011;25793;55.706;13.186;2022-08-21T07:44:13;4.97;;;2.40;;
40088;SDS011;25793;55.706;13.186;2022-08-21T07:46:40;8.02;;;3.22;;
40088;SDS011;25793;55.706;13.186;2022-08-21T07:49:07;6.32;;;2.50;;
40088;SDS011;25793;55.706;13.186;2022-08-21T07:51:33;6.20;;;2.90;;
40088;SDS011;25793;55.706;13.186;2022-08-21T07:54:01;7.15;;;3.15;;
40088;SDS011;25793;55.706;13.186;2022-08-21T07:56:29;7.53;;;3.05;;
40088;SDS011;25793;55.706;13.186;2022-08-21T07:58:57;7.20;;;3.78;;
40088;SDS011;25793;55.706;13.186;2022-08-21T08:01:24;6.57;;;3.00;;
40088;SDS011;25793;55.706;13.186;2022-08-21T08:03:54;7.13;;;4.07;;
40088;SDS011;25793;55.706;13.186;2022-08-21T08:06:21;6.90;;;3.13;;
40088;SDS011;25793;55.706;13.186;2022-08-21T08:08:49;8.38;;;3.78;;
40088;SDS011;25793;55.706;13.186;2022-08-21T08:11:20;8.48;;;3.40;;
40088;SDS011;25793;55.706;13.186;2022-08-21T08:13:47;9.82;;;3.30;;
40088;SDS011;25793;55.706;13.186;2022-08-21T08:16:16;6.13;;;2.80;;
40088;SDS011;25793;55.706;13.186;2022-08-21T08:18:43;8.05;;;3.60;;
40088;SDS011;25793;55.706;13.186;2022-08-21T08:21:11;10.02;;;2.90;;
40088;SDS011;25793;55.706;13.186;2022-08-21T08:23:42;6.90;;;2.80;;
40088;SDS011;25793;55.706;13.186;2022-08-21T08:26:10;6.28;;;2.70;;
40088;SDS011;25793;55.706;13.186;2022-08-21T08:28:44;4.90;;;2.50;;
40088;SDS011;25793;55.706;13.186;2022-08-21T08:31:13;6.68;;;3.03;;
40088;SDS011;25793;55.706;13.186;2022-08-21T08:33:40;7.68;;;3.25;;
40088;SDS011;25793;55.706;13.186;2022-08-21T08:36:12;5.85;;;2.83;;
40088;SDS011;25793;55.706;13.186;2022-08-21T08:38:41;11.70;;;3.47;;
40088;SDS011;25793;55.706;13.186;2022-08-21T08:41:19;6.45;;;2.78;;
40088;SDS011;25793;55.706;13.186;2022-08-21T08:43:50;5.63;;;3.07;;
40088;SDS011;25793;55.706;13.186;2022-08-21T08:49:24;7.63;;;2.92;;
40088;SDS011;25793;55.706;13.186;2022-08-21T08:52:03;9.30;;;3.13;;
40088;SDS011;25793;55.706;13.186;2022-08-21T08:54:52;7.10;;;2.88;;
40088;SDS011;25793;55.706;13.186;2022-08-21T08:57:28;7.32;;;2.50;;
40088;SDS011;25793;55.706;13.186;2022-08-21T08:59:57;5.73;;;2.70;;
40088;SDS011;25793;55.706;13.186;2022-08-21T09:02:27;7.45;;;2.75;;
40088;SDS011;25793;55.706;13.186;2022-08-21T09:04:55;6.73;;;2.70;;
40088;SDS011;25793;55.706;13.186;2022-08-21T09:13:50;5.50;;;2.50;;
40088;SDS011;25793;55.706;13.186;2022-08-21T09:27:03;7.45;;;2.80;;
40088;SDS011;25793;55.706;13.186;2022-08-21T09:29:35;9.65;;;3.15;;
40088;SDS011;25793;55.706;13.186;2022-08-21T09:32:10;5.57;;;2.40;;
40088;SDS011;25793;55.706;13.186;2022-08-21T09:37:33;6.65;;;2.80;;
40088;SDS011;25793;55.706;13.186;2022-08-21T09:40:02;5.78;;;2.53;;
40088;SDS011;25793;55.706;13.186;2022-08-21T09:42:41;7.43;;;2.50;;
40088;SDS011;25793;55.706;13.186;2022-08-21T09:45:12;5.73;;;2.50;;
40088;SDS011;25793;55.706;13.186;2022-08-21T09:47:42;10.52;;;3.17;;
40088;SDS011;25793;55.706;13.186;2022-08-21T09:50:12;6.60;;;2.60;;
40088;SDS011;25793;55.706;13.186;2022-08-21T09:52:45;7.20;;;2.53;;
40088;SDS011;25793;55.706;13.186;2022-08-21T09:55:19;9.90;;;3.63;;
40088;SDS011;25793;55.706;13.186;2022-08-21T09:58:11;6.78;;;2.65;;
40088;SDS011;25793;55.706;13.186;2022-08-21T10:00:38;7.90;;;2.75;;
40088;SDS011;25793;55.706;13.186;2022-08-21T10:08:23;6.85;;;2.92;;
40088;SDS011;25793;55.706;13.186;2022-08-21T10:11:06;5.05;;;2.40;;
40088;SDS011;25793;55.706;13.186;2022-08-21T10:16:41;7.25;;;2.50;;
40088;SDS011;25793;55.706;13.186;2022-08-21T10:19:28;5.83;;;2.43;;
40088;SDS011;25793;55.706;13.186;2022-08-21T10:22:26;6.18;;;2.25;;
40088;SDS011;25793;55.706;13.186;2022-08-21T10:30:13;4.85;;;1.88;;
40088;SDS011;25793;55.706;13.186;2022-08-21T10:47:18;3.75;;;2.30;;
40088;SDS011;25793;55.706;13.186;2022-08-21T10:55:11;3.50;;;2.10;;
40088;SDS011;25793;55.706;13.186;2022-08-21T10:57:57;4.38;;;2.10;;
40088;SDS011;25793;55.706;13.186;2022-08-21T11:00:49;3.40;;;2.15;;
40088;SDS011;25793;55.706;13.186;2022-08-21T11:03:21;3.17;;;1.83;;
40088;SDS011;25793;55.706;13.186;2022-08-21T11:06:04;5.65;;;2.30;;
40088;SDS011;25793;55.706;13.186;2022-08-21T11:08:48;3.55;;;2.25;;
40088;SDS011;25793;55.706;13.186;2022-08-21T11:11:35;4.70;;;1.98;;
40088;SDS011;25793;55.706;13.186;2022-08-21T11:17:37;4.05;;;2.50;;
40088;SDS011;25793;55.706;13.186;2022-08-21T11:20:19;3.92;;;2.28;;
40088;SDS011;25793;55.706;13.186;2022-08-21T11:23:41;3.75;;;2.10;;
40088;SDS011;25793;55.706;13.186;2022-08-21T11:26:02;3.55;;;2.25;;
40088;SDS011;25793;55.706;13.186;2022-08-21T11:28:47;3.92;;;2.10;;
40088;SDS011;25793;55.706;13.186;2022-08-21T11:31:31;3.88;;;2.40;;
40088;SDS011;25793;55.706;13.186;2022-08-21T11:39:37;5.20;;;2.60;;
40088;SDS011;25793;55.706;13.186;2022-08-21T11:45:09;7.63;;;3.10;;
40088;SDS011;25793;55.706;13.186;2022-08-21T11:50:37;8.82;;;2.70;;
40088;SDS011;25793;55.706;13.186;2022-08-21T11:53:16;6.43;;;3.00;;
40088;SDS011;25793;55.706;13.186;2022-08-21T11:56:06;6.22;;;2.50;;
40088;SDS011;25793;55.706;13.186;2022-08-21T11:58:39;6.57;;;2.55;;
40088;SDS011;25793;55.706;13.186;2022-08-21T12:01:15;6.07;;;2.80;;
40088;SDS011;25793;55.706;13.186;2022-08-21T12:06:28;4.47;;;2.58;;
40088;SDS011;25793;55.706;13.186;2022-08-21T12:08:57;6.57;;;2.72;;
40088;SDS011;25793;55.706;13.186;2022-08-21T12:11:30;10.03;;;2.80;;
40088;SDS011;25793;55.706;13.186;2022-08-21T12:14:16;5.38;;;2.80;;
40088;SDS011;25793;55.706;13.186;2022-08-21T12:16:48;5.38;;;2.65;;
40088;SDS011;25793;55.706;13.186;2022-08-21T12:28:07;5.88;;;2.63;;
40088;SDS011;25793;55.706;13.186;2022-08-21T12:32:59;6.82;;;3.33;;
40088;SDS011;25793;55.706;13.186;2022-08-21T12:35:40;5.75;;;2.10;;
40088;SDS011;25793;55.706;13.186;2022-08-21T12:38:29;5.30;;;2.07;;
40088;SDS011;25793;55.706;13.186;2022-08-21T12:41:06;5.38;;;2.40;;
40088;SDS011;25793;55.706;13.186;2022-08-21T12:44:04;6.30;;;2.30;;
40088;SDS011;25793;55.706;13.186;2022-08-21T12:46:39;5.72;;;2.13;;
40088;SDS011;25793;55.706;13.186;2022-08-21T12:49:14;4.95;;;2.30;;
40088;SDS011;25793;55.706;13.186;2022-08-21T12:51:54;6.15;;;2.30;;
40088;SDS011;25793;55.706;13.186;2022-08-21T12:54:28;4.63;;;1.95;;
40088;SDS011;25793;55.706;13.186;2022-08-21T12:57:00;3.80;;;2.00;;
40088;SDS011;25793;55.706;13.186;2022-08-21T12:59:36;3.50;;;1.85;;
40088;SDS011;25793;55.706;13.186;2022-08-21T13:02:11;5.25;;;1.92;;
40088;SDS011;25793;55.706;13.186;2022-08-21T13:04:45;5.90;;;2.78;;
40088;SDS011;25793;55.706;13.186;2022-08-21T13:07:15;4.80;;;2.03;;
40088;SDS011;25793;55.706;13.186;2022-08-21T13:13:01;5.32;;;2.08;;
40088;SDS011;25793;55.706;13.186;2022-08-21T13:15:46;4.03;;;1.80;;
40088;SDS011;25793;55.706;13.186;2022-08-21T13:18:24;4.57;;;2.10;;
40088;SDS011;25793;55.706;13.186;2022-08-21T13:21:10;9.00;;;2.08;;
40088;SDS011;25793;55.706;13.186;2022-08-21T13:23:40;3.10;;;2.10;;
40088;SDS011;25793;55.706;13.186;2022-08-21T13:26:14;5.83;;;2.03;;
40088;SDS011;25793;55.706;13.186;2022-08-21T13:28:44;4.13;;;2.10;;
40088;SDS011;25793;55.706;13.186;2022-08-21T13:31:20;4.75;;;2.33;;
40088;SDS011;25793;55.706;13.186;2022-08-21T13:33:53;4.20;;;1.85;;
40088;SDS011;25793;55.706;13.186;2022-08-21T13:36:25;4.18;;;2.00;;
40088;SDS011;25793;55.706;13.186;2022-08-21T13:39:05;5.47;;;1.88;;
40088;SDS011;25793;55.706;13.186;2022-08-21T13:41:41;4.07;;;1.70;;
40088;SDS011;25793;55.706;13.186;2022-08-21T13:44:18;3.50;;;1.80;;
40088;SDS011;25793;55.706;13.186;2022-08-21T13:46:50;5.57;;;2.00;;
40088;SDS011;25793;55.706;13.186;2022-08-21T13:49:24;4.10;;;1.95;;
40088;SDS011;25793;55.706;13.186;2022-08-21T13:52:44;4.75;;;1.90;;
40088;SDS011;25793;55.706;13.186;2022-08-21T13:54:57;4.50;;;1.95;;
40088;SDS011;25793;55.706;13.186;2022-08-21T14:02:46;5.63;;;1.90;;
40088;SDS011;25793;55.706;13.186;2022-08-21T14:05:20;4.70;;;2.25;;
40088;SDS011;25793;55.706;13.186;2022-08-21T14:08:00;4.80;;;2.07;;
40088;SDS011;25793;55.706;13.186;2022-08-21T14:10:46;7.78;;;2.03;;
40088;SDS011;25793;55.706;13.186;2022-08-21T14:15:55;5.90;;;1.80;;
40088;SDS011;25793;55.706;13.186;2022-08-21T14:18:24;6.15;;;2.25;;
40088;SDS011;25793;55.706;13.186;2022-08-21T14:21:02;6.60;;;1.87;;
40088;SDS011;25793;55.706;13.186;2022-08-21T14:23:33;6.68;;;2.00;;
40088;SDS011;25793;55.706;13.186;2022-08-21T14:26:02;6.85;;;2.17;;
40088;SDS011;25793;55.706;13.186;2022-08-21T14:28:34;5.65;;;1.98;;
40088;SDS011;25793;55.706;13.186;2022-08-21T14:31:13;5.43;;;2.17;;
40088;SDS011;25793;55.706;13.186;2022-08-21T14:33:47;3.45;;;1.83;;
40088;SDS011;25793;55.706;13.186;2022-08-21T14:36:14;4.30;;;1.80;;
40088;SDS011;25793;55.706;13.186;2022-08-21T14:38:43;6.15;;;2.28;;
40088;SDS011;25793;55.706;13.186;2022-08-21T14:41:21;5.70;;;2.00;;
40088;SDS011;25793;55.706;13.186;2022-08-21T14:43:55;6.47;;;2.13;;
40088;SDS011;25793;55.706;13.186;2022-08-21T14:46:35;4.43;;;1.90;;
40088;SDS011;25793;55.706;13.186;2022-08-21T14:49:22;5.93;;;1.92;;
40088;SDS011;25793;55.706;13.186;2022-08-21T14:51:57;4.07;;;2.20;;
40088;SDS011;25793;55.706;13.186;2022-08-21T14:54:29;4.97;;;2.15;;
40088;SDS011;25793;55.706;13.186;2022-08-21T14:57:06;5.40;;;2.33;;
40088;SDS011;25793;55.706;13.186;2022-08-21T14:59:35;7.80;;;2.33;;
40088;SDS011;25793;55.706;13.186;2022-08-21T15:02:03;4.93;;;2.10;;
40088;SDS011;25793;55.706;13.186;2022-08-21T15:04:33;4.82;;;2.10;;
40088;SDS011;25793;55.706;13.186;2022-08-21T15:07:05;4.60;;;2.00;;
40088;SDS011;25793;55.706;13.186;2022-08-21T15:09:34;5.30;;;2.30;;
40088;SDS011;25793;55.706;13.186;2022-08-21T15:12:04;4.93;;;2.33;;
40088;SDS011;25793;55.706;13.186;2022-08-21T15:14:38;4.35;;;2.20;;
40088;SDS011;25793;55.706;13.186;2022-08-21T15:17:11;5.40;;;2.58;;
40088;SDS011;25793;55.706;13.186;2022-08-21T15:19:38;5.13;;;2.40;;
40088;SDS011;25793;55.706;13.186;2022-08-21T15:22:05;5.37;;;2.40;;
40088;SDS011;25793;55.706;13.186;2022-08-21T15:24:47;6.03;;;2.70;;
40088;SDS011;25793;55.706;13.186;2022-08-21T15:27:15;6.10;;;2.30;;
40088;SDS011;25793;55.706;13.186;2022-08-21T15:29:43;4.90;;;2.05;;
40088;SDS011;25793;55.706;13.186;2022-08-21T15:34:53;6.40;;;2.40;;
40088;SDS011;25793;55.706;13.186;2022-08-21T15:37:22;7.40;;;2.58;;
40088;SDS011;25793;55.706;13.186;2022-08-21T15:39:51;6.00;;;2.70;;
40088;SDS011;25793;55.706;13.186;2022-08-21T15:42:20;6.20;;;3.10;;
40088;SDS011;25793;55.706;13.186;2022-08-21T15:44:47;7.60;;;3.20;;
40088;SDS011;25793;55.706;13.186;2022-08-21T15:47:29;6.70;;;2.50;;
40088;SDS011;25793;55.706;13.186;2022-08-21T15:49:58;6.30;;;2.60;;
40088;SDS011;25793;55.706;13.186;2022-08-21T15:52:25;5.80;;;2.35;;
40088;SDS011;25793;55.706;13.186;2022-08-21T15:54:52;7.57;;;2.95;;
40088;SDS011;25793;55.706;13.186;2022-08-21T15:57:21;6.00;;;2.58;;
40088;SDS011;25793;55.706;13.186;2022-08-21T15:59:51;8.33;;;2.57;;
40088;SDS011;25793;55.706;13.186;2022-08-21T16:02:24;4.70;;;2.45;;
40088;SDS011;25793;55.706;13.186;2022-08-21T16:04:53;5.78;;;2.20;;
40088;SDS011;25793;55.706;13.186;2022-08-21T16:07:20;4.77;;;2.00;;
40088;SDS011;25793;55.706;13.186;2022-08-21T16:09:47;5.15;;;2.03;;
40088;SDS011;25793;55.706;13.186;2022-08-21T16:12:18;7.10;;;2.38;;
40088;SDS011;25793;55.706;13.186;2022-08-21T16:14:50;5.95;;;2.22;;
40088;SDS011;25793;55.706;13.186;2022-08-21T16:17:18;5.55;;;2.25;;
40088;SDS011;25793;55.706;13.186;2022-08-21T16:19:47;5.43;;;1.98;;
40088;SDS011;25793;55.706;13.186;2022-08-21T16:22:13;4.93;;;1.90;;
40088;SDS011;25793;55.706;13.186;2022-08-21T16:24:47;4.03;;;1.80;;
40088;SDS011;25793;55.706;13.186;2022-08-21T16:27:23;5.07;;;1.90;;
40088;SDS011;25793;55.706;13.186;2022-08-21T16:29:54;5.57;;;2.30;;
40088;SDS011;25793;55.706;13.186;2022-08-21T16:32:22;4.47;;;1.88;;